sensor_id;sensor_type;location;lat;lon;timestamp;P1;durP1;ratioP1;P2;durP2;ratioP2
34060;SDS011;20336;-33.424;-70.638;2023-03-12T00:01:12;10.05;;;2.80;;
34060;SDS011;20336;-33.424;-70.638;2023-03-12T00:03:39;6.43;;;2.60;;
34060;SDS011;20336;-33.424;-70.638;2023-03-12T00:06:06;8.55;;;2.90;;
34060;SDS011;20336;-33.424;-70.638;2023-03-12T00:08:33;9.80;;;2.50;;
34060;SDS011;20336;-33.424;-70.638;2023-03-12T00:11:03;11.60;;;2.92;;
34060;SDS011;20336;-33.424;-70.638;2023-03-12T00:13:30;12.00;;;3.20;;
34060;SDS011;20336;-33.424;-70.638;2023-03-12T00:16:01;11.98;;;3.80;;
34060;SDS011;20336;-33.424;-70.638;2023-03-12T00:18:28;9.25;;;3.30;;
34060;SDS011;20336;-33.424;-70.638;2023-03-12T00:20:55;8.90;;;3.13;;
34060;SDS011;20336;-33.424;-70.638;2023-03-12T00:23:22;18.60;;;3.30;;
34060;SDS011;20336;-33.424;-70.638;2023-03-12T00:25:49;6.55;;;2.83;;
34060;SDS011;20336;-33.424;-70.638;2023-03-12T00:28:16;9.20;;;2.70;;
34060;SDS011;20336;-33.424;-70.638;2023-03-12T00:30:42;13.52;;;3.10;;
34060;SDS011;20336;-33.424;-70.638;2023-03-12T00:33:11;12.93;;;4.15;;
34060;SDS011;20336;-33.424;-70.638;2023-03-12T00:35:38;9.18;;;3.38;;
34060;SDS011;20336;-33.424;-70.638;2023-03-12T00:38:05;9.32;;;3.40;;
34060;SDS011;20336;-33.424;-70.638;2023-03-12T00:40:32;9.05;;;3.28;;
34060;SDS011;20336;-33.424;-70.638;2023-03-12T00:42:58;15.57;;;4.05;;
34060;SDS011;20336;-33.424;-70.638;2023-03-12T00:45:25;10.68;;;3.33;;
34060;SDS011;20336;-33.424;-70.638;2023-03-12T00:47:52;7.85;;;2.67;;
34060;SDS011;20336;-33.424;-70.638;2023-03-12T00:50:19;17.10;;;3.80;;
34060;SDS011;20336;-33.424;-70.638;2023-03-12T00:52:46;11.57;;;3.63;;
34060;SDS011;20336;-33.424;-70.638;2023-03-12T00:55:13;8.45;;;3.28;;
34060;SDS011;20336;-33.424;-70.638;2023-03-12T00:57:40;8.88;;;3.25;;
34060;SDS011;20336;-33.424;-70.638;2023-03-12T01:00:08;13.07;;;3.15;;
34060;SDS011;20336;-33.424;-70.638;2023-03-12T01:02:36;11.18;;;3.17;;
34060;SDS011;20336;-33.424;-70.638;2023-03-12T01:05:04;9.63;;;3.20;;
34060;SDS011;20336;-33.424;-70.638;2023-03-12T01:07:31;6.95;;;2.85;;
34060;SDS011;20336;-33.424;-70.638;2023-03-12T01:09:58;9.93;;;2.80;;
34060;SDS011;20336;-33.424;-70.638;2023-03-12T01:12:25;12.48;;;3.47;;
34060;SDS011;20336;-33.424;-70.638;2023-03-12T01:14:52;9.90;;;3.38;;
34060;SDS011;20336;-33.424;-70.638;2023-03-12T01:17:18;6.95;;;2.85;;
34060;SDS011;20336;-33.424;-70.638;2023-03-12T01:19:45;11.18;;;3.50;;
34060;SDS011;20336;-33.424;-70.638;2023-03-12T01:22:12;9.43;;;3.28;;
34060;SDS011;20336;-33.424;-70.638;2023-03-12T01:24:39;6.45;;;3.30;;
34060;SDS011;20336;-33.424;-70.638;2023-03-12T01:27:06;10.80;;;3.83;;
34060;SDS011;20336;-33.424;-70.638;2023-03-12T01:29:33;7.75;;;3.13;;
34060;SDS011;20336;-33.424;-70.638;2023-03-12T01:32:00;8.77;;;3.00;;
34060;SDS011;20336;-33.424;-70.638;2023-03-12T01:34:27;7.15;;;3.20;;
34060;SDS011;20336;-33.424;-70.638;2023-03-12T01:36:55;9.85;;;3.65;;
34060;SDS011;20336;-33.424;-70.638;2023-03-12T01:39:21;8.80;;;3.28;;
34060;SDS011;20336;-33.424;-70.638;2023-03-12T01:41:50;8.82;;;3.45;;
34060;SDS011;20336;-33.424;-70.638;2023-03-12T01:44:17;8.90;;;3.33;;
34060;SDS011;20336;-33.424;-70.638;2023-03-12T01:46:44;8.77;;;3.30;;
34060;SDS011;20336;-33.424;-70.638;2023-03-12T01:54:28;9.60;;;2.90;;
34060;SDS011;20336;-33.424;-70.638;2023-03-12T01:56:56;9.85;;;2.85;;
34060;SDS011;20336;-33.424;-70.638;2023-03-12T01:59:24;8.13;;;3.50;;
34060;SDS011;20336;-33.424;-70.638;2023-03-12T02:01:53;7.45;;;3.97;;
34060;SDS011;20336;-33.424;-70.638;2023-03-12T02:04:20;7.32;;;3.75;;
34060;SDS011;20336;-33.424;-70.638;2023-03-12T02:06:49;8.90;;;3.72;;
34060;SDS011;20336;-33.424;-70.638;2023-03-12T02:09:18;9.20;;;3.40;;
34060;SDS011;20336;-33.424;-70.638;2023-03-12T02:11:46;10.50;;;3.55;;
34060;SDS011;20336;-33.424;-70.638;2023-03-12T02:14:13;9.07;;;3.38;;
34060;SDS011;20336;-33.424;-70.638;2023-03-12T02:16:40;9.38;;;3.60;;
34060;SDS011;20336;-33.424;-70.638;2023-03-12T02:19:11;7.57;;;3.67;;
34060;SDS011;20336;-33.424;-70.638;2023-03-12T02:21:40;10.85;;;3.42;;
34060;SDS011;20336;-33.424;-70.638;2023-03-12T02:26:43;11.57;;;3.50;;
34060;SDS011;20336;-33.424;-70.638;2023-03-12T02:29:12;9.90;;;3.75;;
34060;SDS011;20336;-33.424;-70.638;2023-03-12T02:31:43;7.07;;;2.92;;
34060;SDS011;20336;-33.424;-70.638;2023-03-12T02:34:11;8.45;;;3.17;;
34060;SDS011;20336;-33.424;-70.638;2023-03-12T02:36:38;10.15;;;3.33;;
34060;SDS011;20336;-33.424;-70.638;2023-03-12T02:39:05;9.25;;;3.05;;
34060;SDS011;20336;-33.424;-70.638;2023-03-12T02:41:33;7.15;;;3.03;;
34060;SDS011;20336;-33.424;-70.638;2023-03-12T02:46:34;7.38;;;3.30;;
34060;SDS011;20336;-33.424;-70.638;2023-03-12T02:49:01;8.43;;;3.00;;
34060;SDS011;20336;-33.424;-70.638;2023-03-12T02:51:29;7.35;;;2.90;;
34060;SDS011;20336;-33.424;-70.638;2023-03-12T02:53:55;6.43;;;3.05;;
34060;SDS011;20336;-33.424;-70.638;2023-03-12T02:56:24;7.03;;;3.00;;
34060;SDS011;20336;-33.424;-70.638;2023-03-12T02:58:51;6.57;;;3.33;;
34060;SDS011;20336;-33.424;-70.638;2023-03-12T03:01:18;6.65;;;2.92;;
34060;SDS011;20336;-33.424;-70.638;2023-03-12T03:03:46;10.05;;;3.40;;
34060;SDS011;20336;-33.424;-70.638;2023-03-12T03:06:15;6.82;;;3.03;;
34060;SDS011;20336;-33.424;-70.638;2023-03-12T03:08:43;10.30;;;3.30;;
34060;SDS011;20336;-33.424;-70.638;2023-03-12T03:11:10;7.68;;;3.50;;
34060;SDS011;20336;-33.424;-70.638;2023-03-12T03:13:37;10.50;;;3.20;;
34060;SDS011;20336;-33.424;-70.638;2023-03-12T03:16:04;5.97;;;3.05;;
34060;SDS011;20336;-33.424;-70.638;2023-03-12T03:18:31;8.52;;;3.95;;
34060;SDS011;20336;-33.424;-70.638;2023-03-12T03:21:02;6.00;;;3.15;;
34060;SDS011;20336;-33.424;-70.638;2023-03-12T03:23:29;8.63;;;3.45;;
34060;SDS011;20336;-33.424;-70.638;2023-03-12T03:25:56;6.32;;;3.63;;
34060;SDS011;20336;-33.424;-70.638;2023-03-12T03:28:24;7.97;;;3.50;;
34060;SDS011;20336;-33.424;-70.638;2023-03-12T03:30:52;8.90;;;3.10;;
34060;SDS011;20336;-33.424;-70.638;2023-03-12T03:33:19;9.38;;;3.60;;
34060;SDS011;20336;-33.424;-70.638;2023-03-12T03:35:46;7.97;;;3.67;;
34060;SDS011;20336;-33.424;-70.638;2023-03-12T03:38:13;8.77;;;3.42;;
34060;SDS011;20336;-33.424;-70.638;2023-03-12T03:40:40;7.00;;;3.80;;
34060;SDS011;20336;-33.424;-70.638;2023-03-12T03:43:08;8.40;;;2.80;;
34060;SDS011;20336;-33.424;-70.638;2023-03-12T03:45:34;5.47;;;2.75;;
34060;SDS011;20336;-33.424;-70.638;2023-03-12T03:48:01;7.63;;;2.90;;
34060;SDS011;20336;-33.424;-70.638;2023-03-12T03:50:28;6.88;;;3.35;;
34060;SDS011;20336;-33.424;-70.638;2023-03-12T03:52:55;9.75;;;3.35;;
34060;SDS011;20336;-33.424;-70.638;2023-03-12T03:55:22;6.43;;;2.90;;
34060;SDS011;20336;-33.424;-70.638;2023-03-12T03:57:50;11.52;;;3.53;;
34060;SDS011;20336;-33.424;-70.638;2023-03-12T04:00:18;7.25;;;3.20;;
34060;SDS011;20336;-33.424;-70.638;2023-03-12T04:02:45;8.98;;;3.50;;
34060;SDS011;20336;-33.424;-70.638;2023-03-12T04:05:11;7.70;;;3.08;;
34060;SDS011;20336;-33.424;-70.638;2023-03-12T04:07:40;6.93;;;3.45;;
34060;SDS011;20336;-33.424;-70.638;2023-03-12T04:10:07;9.40;;;2.80;;
34060;SDS011;20336;-33.424;-70.638;2023-03-12T04:12:34;5.60;;;3.38;;
34060;SDS011;20336;-33.424;-70.638;2023-03-12T04:15:10;6.20;;;2.92;;
34060;SDS011;20336;-33.424;-70.638;2023-03-12T04:17:37;6.82;;;3.35;;
34060;SDS011;20336;-33.424;-70.638;2023-03-12T04:20:04;7.78;;;3.25;;
34060;SDS011;20336;-33.424;-70.638;2023-03-12T04:22:33;5.90;;;3.13;;
34060;SDS011;20336;-33.424;-70.638;2023-03-12T04:25:00;6.78;;;2.92;;
34060;SDS011;20336;-33.424;-70.638;2023-03-12T04:27:27;6.03;;;3.20;;
34060;SDS011;20336;-33.424;-70.638;2023-03-12T04:29:54;7.20;;;3.28;;
34060;SDS011;20336;-33.424;-70.638;2023-03-12T04:32:20;5.75;;;3.30;;
34060;SDS011;20336;-33.424;-70.638;2023-03-12T04:34:47;7.55;;;3.05;;
34060;SDS011;20336;-33.424;-70.638;2023-03-12T04:37:14;7.20;;;4.00;;
34060;SDS011;20336;-33.424;-70.638;2023-03-12T04:39:42;9.63;;;3.38;;
34060;SDS011;20336;-33.424;-70.638;2023-03-12T04:42:09;7.13;;;3.58;;
34060;SDS011;20336;-33.424;-70.638;2023-03-12T04:44:36;8.35;;;3.50;;
34060;SDS011;20336;-33.424;-70.638;2023-03-12T04:47:05;7.90;;;3.55;;
34060;SDS011;20336;-33.424;-70.638;2023-03-12T04:49:32;5.68;;;3.08;;
34060;SDS011;20336;-33.424;-70.638;2023-03-12T04:51:59;6.10;;;3.22;;
34060;SDS011;20336;-33.424;-70.638;2023-03-12T04:54:25;7.47;;;3.45;;
34060;SDS011;20336;-33.424;-70.638;2023-03-12T04:56:52;4.45;;;3.10;;
34060;SDS011;20336;-33.424;-70.638;2023-03-12T04:59:19;7.63;;;3.25;;
34060;SDS011;20336;-33.424;-70.638;2023-03-12T05:01:46;5.30;;;3.17;;
34060;SDS011;20336;-33.424;-70.638;2023-03-12T05:04:13;6.68;;;3.40;;
34060;SDS011;20336;-33.424;-70.638;2023-03-12T05:06:40;10.88;;;3.75;;
34060;SDS011;20336;-33.424;-70.638;2023-03-12T05:09:07;6.93;;;3.97;;
34060;SDS011;20336;-33.424;-70.638;2023-03-12T05:11:33;11.35;;;3.60;;
34060;SDS011;20336;-33.424;-70.638;2023-03-12T05:14:00;9.63;;;3.85;;
34060;SDS011;20336;-33.424;-70.638;2023-03-12T05:16:27;9.15;;;3.40;;
34060;SDS011;20336;-33.424;-70.638;2023-03-12T05:18:54;11.10;;;3.72;;
34060;SDS011;20336;-33.424;-70.638;2023-03-12T05:21:21;6.50;;;3.67;;
34060;SDS011;20336;-33.424;-70.638;2023-03-12T05:23:48;9.20;;;3.67;;
34060;SDS011;20336;-33.424;-70.638;2023-03-12T05:26:16;9.70;;;3.83;;
34060;SDS011;20336;-33.424;-70.638;2023-03-12T05:28:43;9.10;;;3.50;;
34060;SDS011;20336;-33.424;-70.638;2023-03-12T05:31:11;8.68;;;3.42;;
34060;SDS011;20336;-33.424;-70.638;2023-03-12T05:33:38;8.07;;;3.60;;
34060;SDS011;20336;-33.424;-70.638;2023-03-12T05:36:05;10.40;;;3.85;;
34060;SDS011;20336;-33.424;-70.638;2023-03-12T05:38:32;6.70;;;4.03;;
34060;SDS011;20336;-33.424;-70.638;2023-03-12T05:40:59;10.25;;;3.60;;
34060;SDS011;20336;-33.424;-70.638;2023-03-12T05:43:26;12.60;;;3.90;;
34060;SDS011;20336;-33.424;-70.638;2023-03-12T05:45:56;7.65;;;4.20;;
34060;SDS011;20336;-33.424;-70.638;2023-03-12T05:48:24;12.75;;;4.22;;
34060;SDS011;20336;-33.424;-70.638;2023-03-12T05:50:51;5.20;;;3.20;;
34060;SDS011;20336;-33.424;-70.638;2023-03-12T05:53:17;8.45;;;3.50;;
34060;SDS011;20336;-33.424;-70.638;2023-03-12T05:55:44;7.05;;;3.90;;
34060;SDS011;20336;-33.424;-70.638;2023-03-12T05:58:11;10.73;;;3.55;;
34060;SDS011;20336;-33.424;-70.638;2023-03-12T06:00:39;10.73;;;4.05;;
34060;SDS011;20336;-33.424;-70.638;2023-03-12T06:03:06;9.10;;;3.95;;
34060;SDS011;20336;-33.424;-70.638;2023-03-12T06:05:34;8.50;;;3.70;;
34060;SDS011;20336;-33.424;-70.638;2023-03-12T06:08:01;9.38;;;3.50;;
34060;SDS011;20336;-33.424;-70.638;2023-03-12T06:10:28;7.50;;;3.40;;
34060;SDS011;20336;-33.424;-70.638;2023-03-12T06:12:55;9.95;;;3.92;;
34060;SDS011;20336;-33.424;-70.638;2023-03-12T06:15:22;8.65;;;3.78;;
34060;SDS011;20336;-33.424;-70.638;2023-03-12T06:17:49;12.25;;;3.72;;
34060;SDS011;20336;-33.424;-70.638;2023-03-12T06:20:16;7.20;;;3.78;;
34060;SDS011;20336;-33.424;-70.638;2023-03-12T06:22:43;8.90;;;3.30;;
34060;SDS011;20336;-33.424;-70.638;2023-03-12T06:25:10;7.25;;;3.75;;
34060;SDS011;20336;-33.424;-70.638;2023-03-12T06:27:37;7.05;;;3.53;;
34060;SDS011;20336;-33.424;-70.638;2023-03-12T06:30:04;11.75;;;4.13;;
34060;SDS011;20336;-33.424;-70.638;2023-03-12T06:32:31;12.75;;;3.92;;
34060;SDS011;20336;-33.424;-70.638;2023-03-12T06:34:58;9.93;;;4.22;;
34060;SDS011;20336;-33.424;-70.638;2023-03-12T06:37:25;10.23;;;3.80;;
34060;SDS011;20336;-33.424;-70.638;2023-03-12T06:39:52;6.40;;;3.42;;
34060;SDS011;20336;-33.424;-70.638;2023-03-12T06:42:19;10.15;;;4.32;;
34060;SDS011;20336;-33.424;-70.638;2023-03-12T06:44:47;10.75;;;4.22;;
34060;SDS011;20336;-33.424;-70.638;2023-03-12T06:47:14;6.50;;;3.97;;
34060;SDS011;20336;-33.424;-70.638;2023-03-12T06:49:41;14.55;;;4.35;;
34060;SDS011;20336;-33.424;-70.638;2023-03-12T06:52:09;10.05;;;4.25;;
34060;SDS011;20336;-33.424;-70.638;2023-03-12T06:54:36;11.55;;;4.22;;
34060;SDS011;20336;-33.424;-70.638;2023-03-12T06:57:03;7.63;;;3.92;;
34060;SDS011;20336;-33.424;-70.638;2023-03-12T06:59:29;10.88;;;3.65;;
34060;SDS011;20336;-33.424;-70.638;2023-03-12T07:01:56;7.78;;;4.13;;
34060;SDS011;20336;-33.424;-70.638;2023-03-12T07:04:23;9.05;;;4.07;;
34060;SDS011;20336;-33.424;-70.638;2023-03-12T07:06:50;11.50;;;4.25;;
34060;SDS011;20336;-33.424;-70.638;2023-03-12T07:09:18;9.48;;;4.25;;
34060;SDS011;20336;-33.424;-70.638;2023-03-12T07:11:45;8.60;;;4.78;;
34060;SDS011;20336;-33.424;-70.638;2023-03-12T07:14:12;9.63;;;4.55;;
34060;SDS011;20336;-33.424;-70.638;2023-03-12T07:16:39;9.13;;;4.70;;
34060;SDS011;20336;-33.424;-70.638;2023-03-12T07:19:05;9.10;;;5.22;;
34060;SDS011;20336;-33.424;-70.638;2023-03-12T07:21:32;10.32;;;5.10;;
34060;SDS011;20336;-33.424;-70.638;2023-03-12T07:23:59;8.27;;;4.60;;
34060;SDS011;20336;-33.424;-70.638;2023-03-12T07:26:31;8.30;;;4.95;;
34060;SDS011;20336;-33.424;-70.638;2023-03-12T07:28:59;11.45;;;4.78;;
34060;SDS011;20336;-33.424;-70.638;2023-03-12T07:31:26;15.68;;;4.82;;
34060;SDS011;20336;-33.424;-70.638;2023-03-12T07:33:53;10.80;;;4.72;;
34060;SDS011;20336;-33.424;-70.638;2023-03-12T07:36:20;11.13;;;5.25;;
34060;SDS011;20336;-33.424;-70.638;2023-03-12T07:38:47;8.87;;;4.40;;
34060;SDS011;20336;-33.424;-70.638;2023-03-12T07:41:14;8.02;;;4.40;;
34060;SDS011;20336;-33.424;-70.638;2023-03-12T07:43:41;13.57;;;4.65;;
34060;SDS011;20336;-33.424;-70.638;2023-03-12T07:46:08;11.23;;;4.53;;
34060;SDS011;20336;-33.424;-70.638;2023-03-12T07:48:34;11.32;;;4.60;;
34060;SDS011;20336;-33.424;-70.638;2023-03-12T07:51:02;18.50;;;7.53;;
34060;SDS011;20336;-33.424;-70.638;2023-03-12T07:53:28;9.00;;;5.10;;
34060;SDS011;20336;-33.424;-70.638;2023-03-12T07:55:55;10.50;;;4.47;;
34060;SDS011;20336;-33.424;-70.638;2023-03-12T07:58:22;9.52;;;4.68;;
34060;SDS011;20336;-33.424;-70.638;2023-03-12T08:00:49;8.87;;;4.57;;
34060;SDS011;20336;-33.424;-70.638;2023-03-12T08:03:18;11.02;;;4.40;;
34060;SDS011;20336;-33.424;-70.638;2023-03-12T08:05:44;10.88;;;4.95;;
34060;SDS011;20336;-33.424;-70.638;2023-03-12T08:08:20;12.45;;;4.82;;
34060;SDS011;20336;-33.424;-70.638;2023-03-12T08:10:47;9.77;;;4.38;;
34060;SDS011;20336;-33.424;-70.638;2023-03-12T08:13:14;6.65;;;4.00;;
34060;SDS011;20336;-33.424;-70.638;2023-03-12T08:15:42;9.07;;;4.37;;
34060;SDS011;20336;-33.424;-70.638;2023-03-12T08:18:09;10.25;;;5.18;;
34060;SDS011;20336;-33.424;-70.638;2023-03-12T08:20:36;10.07;;;4.30;;
34060;SDS011;20336;-33.424;-70.638;2023-03-12T08:23:02;11.93;;;4.30;;
34060;SDS011;20336;-33.424;-70.638;2023-03-12T08:25:29;13.35;;;5.30;;
34060;SDS011;20336;-33.424;-70.638;2023-03-12T08:27:56;12.43;;;4.63;;
34060;SDS011;20336;-33.424;-70.638;2023-03-12T08:30:23;9.82;;;5.10;;
34060;SDS011;20336;-33.424;-70.638;2023-03-12T08:32:50;12.43;;;4.55;;
34060;SDS011;20336;-33.424;-70.638;2023-03-12T08:35:17;11.90;;;5.10;;
34060;SDS011;20336;-33.424;-70.638;2023-03-12T08:37:44;7.72;;;4.90;;
34060;SDS011;20336;-33.424;-70.638;2023-03-12T08:40:10;9.37;;;4.50;;
34060;SDS011;20336;-33.424;-70.638;2023-03-12T08:42:41;11.68;;;5.22;;
34060;SDS011;20336;-33.424;-70.638;2023-03-12T08:45:09;12.52;;;5.00;;
34060;SDS011;20336;-33.424;-70.638;2023-03-12T08:47:38;9.45;;;5.13;;
34060;SDS011;20336;-33.424;-70.638;2023-03-12T08:50:06;12.82;;;5.22;;
34060;SDS011;20336;-33.424;-70.638;2023-03-12T08:52:33;12.35;;;5.38;;
34060;SDS011;20336;-33.424;-70.638;2023-03-12T08:55:00;11.60;;;5.43;;
34060;SDS011;20336;-33.424;-70.638;2023-03-12T08:57:27;8.67;;;5.27;;
34060;SDS011;20336;-33.424;-70.638;2023-03-12T08:59:54;7.70;;;5.17;;
34060;SDS011;20336;-33.424;-70.638;2023-03-12T09:02:21;9.00;;;5.10;;
34060;SDS011;20336;-33.424;-70.638;2023-03-12T09:04:48;12.73;;;5.07;;
34060;SDS011;20336;-33.424;-70.638;2023-03-12T09:07:15;14.75;;;5.57;;
34060;SDS011;20336;-33.424;-70.638;2023-03-12T09:09:46;11.63;;;5.20;;
34060;SDS011;20336;-33.424;-70.638;2023-03-12T09:12:13;10.20;;;4.60;;
34060;SDS011;20336;-33.424;-70.638;2023-03-12T09:14:40;8.98;;;4.60;;
34060;SDS011;20336;-33.424;-70.638;2023-03-12T09:17:07;9.73;;;4.83;;
34060;SDS011;20336;-33.424;-70.638;2023-03-12T09:19:34;11.13;;;5.47;;
34060;SDS011;20336;-33.424;-70.638;2023-03-12T09:22:00;12.50;;;4.70;;
34060;SDS011;20336;-33.424;-70.638;2023-03-12T09:24:27;11.10;;;4.83;;
34060;SDS011;20336;-33.424;-70.638;2023-03-12T09:26:54;9.57;;;5.00;;
34060;SDS011;20336;-33.424;-70.638;2023-03-12T09:29:21;7.30;;;4.57;;
34060;SDS011;20336;-33.424;-70.638;2023-03-12T09:31:49;8.73;;;4.53;;
34060;SDS011;20336;-33.424;-70.638;2023-03-12T09:34:16;12.40;;;4.83;;
34060;SDS011;20336;-33.424;-70.638;2023-03-12T09:36:43;10.50;;;5.00;;
34060;SDS011;20336;-33.424;-70.638;2023-03-12T09:39:10;13.70;;;4.87;;
34060;SDS011;20336;-33.424;-70.638;2023-03-12T09:41:37;13.37;;;4.87;;
34060;SDS011;20336;-33.424;-70.638;2023-03-12T09:44:10;12.73;;;4.87;;
34060;SDS011;20336;-33.424;-70.638;2023-03-12T09:46:49;10.37;;;5.57;;
34060;SDS011;20336;-33.424;-70.638;2023-03-12T09:49:29;12.37;;;5.23;;
34060;SDS011;20336;-33.424;-70.638;2023-03-12T09:51:57;13.33;;;5.77;;
34060;SDS011;20336;-33.424;-70.638;2023-03-12T09:54:29;39.57;;;7.33;;
34060;SDS011;20336;-33.424;-70.638;2023-03-12T09:56:59;22.93;;;6.53;;
34060;SDS011;20336;-33.424;-70.638;2023-03-12T09:59:28;11.33;;;5.37;;
34060;SDS011;20336;-33.424;-70.638;2023-03-12T10:01:55;33.47;;;7.43;;
34060;SDS011;20336;-33.424;-70.638;2023-03-12T10:14:53;15.97;;;7.30;;
34060;SDS011;20336;-33.424;-70.638;2023-03-12T10:22:29;13.27;;;6.97;;
34060;SDS011;20336;-33.424;-70.638;2023-03-12T10:27:30;14.17;;;7.47;;
34060;SDS011;20336;-33.424;-70.638;2023-03-12T10:30:00;14.90;;;7.00;;
34060;SDS011;20336;-33.424;-70.638;2023-03-12T10:32:49;16.50;;;7.93;;
34060;SDS011;20336;-33.424;-70.638;2023-03-12T10:35:18;13.00;;;6.77;;
34060;SDS011;20336;-33.424;-70.638;2023-03-12T10:37:50;13.00;;;6.23;;
34060;SDS011;20336;-33.424;-70.638;2023-03-12T10:40:23;11.10;;;5.97;;
34060;SDS011;20336;-33.424;-70.638;2023-03-12T10:42:50;14.07;;;6.67;;
34060;SDS011;20336;-33.424;-70.638;2023-03-12T10:48:09;14.98;;;5.70;;
34060;SDS011;20336;-33.424;-70.638;2023-03-12T10:50:37;15.25;;;5.65;;
34060;SDS011;20336;-33.424;-70.638;2023-03-12T10:53:23;12.77;;;5.30;;
34060;SDS011;20336;-33.424;-70.638;2023-03-12T10:55:59;10.90;;;4.68;;
34060;SDS011;20336;-33.424;-70.638;2023-03-12T11:01:27;9.00;;;4.37;;
34060;SDS011;20336;-33.424;-70.638;2023-03-12T11:07:35;15.88;;;5.38;;
34060;SDS011;20336;-33.424;-70.638;2023-03-12T11:09:43;12.82;;;5.72;;
34060;SDS011;20336;-33.424;-70.638;2023-03-12T11:12:24;10.93;;;5.25;;
34060;SDS011;20336;-33.424;-70.638;2023-03-12T11:14:51;14.07;;;5.57;;
34060;SDS011;20336;-33.424;-70.638;2023-03-12T11:17:19;16.40;;;5.85;;
34060;SDS011;20336;-33.424;-70.638;2023-03-12T11:19:46;18.63;;;6.18;;
34060;SDS011;20336;-33.424;-70.638;2023-03-12T11:22:13;13.25;;;5.45;;
34060;SDS011;20336;-33.424;-70.638;2023-03-12T11:24:55;17.25;;;5.10;;
34060;SDS011;20336;-33.424;-70.638;2023-03-12T11:27:41;17.67;;;5.68;;
34060;SDS011;20336;-33.424;-70.638;2023-03-12T11:30:10;20.55;;;6.03;;
34060;SDS011;20336;-33.424;-70.638;2023-03-12T11:32:40;14.45;;;5.75;;
34060;SDS011;20336;-33.424;-70.638;2023-03-12T11:35:08;11.55;;;6.28;;
34060;SDS011;20336;-33.424;-70.638;2023-03-12T11:37:54;12.13;;;5.85;;
34060;SDS011;20336;-33.424;-70.638;2023-03-12T11:45:43;18.02;;;5.53;;
34060;SDS011;20336;-33.424;-70.638;2023-03-12T11:48:55;20.38;;;5.40;;
34060;SDS011;20336;-33.424;-70.638;2023-03-12T11:56:24;17.83;;;6.10;;
34060;SDS011;20336;-33.424;-70.638;2023-03-12T12:04:01;12.82;;;6.15;;
34060;SDS011;20336;-33.424;-70.638;2023-03-12T12:09:01;14.13;;;5.35;;
34060;SDS011;20336;-33.424;-70.638;2023-03-12T12:16:42;14.63;;;5.60;;
34060;SDS011;20336;-33.424;-70.638;2023-03-12T12:29:19;23.05;;;7.07;;
34060;SDS011;20336;-33.424;-70.638;2023-03-12T12:31:50;17.80;;;7.60;;
34060;SDS011;20336;-33.424;-70.638;2023-03-12T12:34:24;15.30;;;7.88;;
34060;SDS011;20336;-33.424;-70.638;2023-03-12T12:36:55;17.02;;;8.30;;
34060;SDS011;20336;-33.424;-70.638;2023-03-12T12:39:34;31.92;;;9.07;;
34060;SDS011;20336;-33.424;-70.638;2023-03-12T12:42:03;24.15;;;9.40;;
34060;SDS011;20336;-33.424;-70.638;2023-03-12T12:44:39;19.30;;;7.88;;
34060;SDS011;20336;-33.424;-70.638;2023-03-12T12:47:08;27.63;;;8.90;;
34060;SDS011;20336;-33.424;-70.638;2023-03-12T12:49:50;21.38;;;9.27;;
34060;SDS011;20336;-33.424;-70.638;2023-03-12T12:52:19;25.55;;;9.35;;
34060;SDS011;20336;-33.424;-70.638;2023-03-12T12:57:23;23.00;;;7.72;;
34060;SDS011;20336;-33.424;-70.638;2023-03-12T13:02:39;27.23;;;8.30;;
34060;SDS011;20336;-33.424;-70.638;2023-03-12T13:08:00;17.10;;;8.60;;
34060;SDS011;20336;-33.424;-70.638;2023-03-12T13:13:03;16.92;;;10.18;;
34060;SDS011;20336;-33.424;-70.638;2023-03-12T13:15:35;18.95;;;9.82;;
34060;SDS011;20336;-33.424;-70.638;2023-03-12T13:18:21;20.70;;;10.38;;
34060;SDS011;20336;-33.424;-70.638;2023-03-12T13:20:59;17.60;;;10.57;;
34060;SDS011;20336;-33.424;-70.638;2023-03-12T13:25:59;23.48;;;10.05;;
34060;SDS011;20336;-33.424;-70.638;2023-03-12T13:28:33;20.13;;;10.93;;
34060;SDS011;20336;-33.424;-70.638;2023-03-12T13:31:02;21.70;;;9.88;;
34060;SDS011;20336;-33.424;-70.638;2023-03-12T13:33:47;27.27;;;10.05;;
34060;SDS011;20336;-33.424;-70.638;2023-03-12T13:38:53;20.67;;;9.65;;
34060;SDS011;20336;-33.424;-70.638;2023-03-12T13:41:30;19.40;;;9.45;;
34060;SDS011;20336;-33.424;-70.638;2023-03-12T13:43:57;15.68;;;9.43;;
34060;SDS011;20336;-33.424;-70.638;2023-03-12T13:46:34;17.98;;;10.15;;
34060;SDS011;20336;-33.424;-70.638;2023-03-12T13:49:03;21.45;;;10.50;;
34060;SDS011;20336;-33.424;-70.638;2023-03-12T13:51:30;22.08;;;10.05;;
34060;SDS011;20336;-33.424;-70.638;2023-03-12T13:53:58;17.17;;;9.20;;
34060;SDS011;20336;-33.424;-70.638;2023-03-12T13:56:27;18.10;;;9.45;;
34060;SDS011;20336;-33.424;-70.638;2023-03-12T13:59:04;17.10;;;8.48;;
34060;SDS011;20336;-33.424;-70.638;2023-03-12T14:01:35;20.45;;;9.23;;
34060;SDS011;20336;-33.424;-70.638;2023-03-12T14:04:04;19.25;;;8.73;;
34060;SDS011;20336;-33.424;-70.638;2023-03-12T14:06:34;14.40;;;8.32;;
34060;SDS011;20336;-33.424;-70.638;2023-03-12T14:09:07;18.25;;;8.98;;
34060;SDS011;20336;-33.424;-70.638;2023-03-12T14:16:44;19.20;;;7.68;;
34060;SDS011;20336;-33.424;-70.638;2023-03-12T14:19:15;15.25;;;8.35;;
34060;SDS011;20336;-33.424;-70.638;2023-03-12T14:21:43;14.27;;;7.63;;
34060;SDS011;20336;-33.424;-70.638;2023-03-12T14:24:16;15.10;;;7.78;;
34060;SDS011;20336;-33.424;-70.638;2023-03-12T14:26:44;23.95;;;8.75;;
34060;SDS011;20336;-33.424;-70.638;2023-03-12T14:31:40;14.80;;;8.70;;
34060;SDS011;20336;-33.424;-70.638;2023-03-12T14:34:11;24.65;;;9.00;;
34060;SDS011;20336;-33.424;-70.638;2023-03-12T14:41:59;14.65;;;7.85;;
34060;SDS011;20336;-33.424;-70.638;2023-03-12T14:44:29;22.42;;;8.60;;
34060;SDS011;20336;-33.424;-70.638;2023-03-12T14:46:57;17.10;;;8.88;;
34060;SDS011;20336;-33.424;-70.638;2023-03-12T14:49:24;16.23;;;8.23;;
34060;SDS011;20336;-33.424;-70.638;2023-03-12T14:51:52;18.27;;;7.97;;
34060;SDS011;20336;-33.424;-70.638;2023-03-12T14:54:20;15.73;;;8.82;;
34060;SDS011;20336;-33.424;-70.638;2023-03-12T14:56:48;20.30;;;9.43;;
34060;SDS011;20336;-33.424;-70.638;2023-03-12T14:59:22;17.65;;;8.63;;
34060;SDS011;20336;-33.424;-70.638;2023-03-12T15:01:50;15.60;;;7.78;;
34060;SDS011;20336;-33.424;-70.638;2023-03-12T15:04:17;21.80;;;8.68;;
34060;SDS011;20336;-33.424;-70.638;2023-03-12T15:06:49;14.30;;;8.30;;
34060;SDS011;20336;-33.424;-70.638;2023-03-12T15:09:23;17.95;;;8.32;;
34060;SDS011;20336;-33.424;-70.638;2023-03-12T15:11:54;15.43;;;8.23;;
34060;SDS011;20336;-33.424;-70.638;2023-03-12T15:14:22;17.13;;;9.48;;
34060;SDS011;20336;-33.424;-70.638;2023-03-12T15:16:50;15.13;;;9.13;;
34060;SDS011;20336;-33.424;-70.638;2023-03-12T15:19:19;17.00;;;9.48;;
34060;SDS011;20336;-33.424;-70.638;2023-03-12T15:21:47;17.42;;;8.50;;
34060;SDS011;20336;-33.424;-70.638;2023-03-12T15:24:14;19.23;;;8.68;;
34060;SDS011;20336;-33.424;-70.638;2023-03-12T15:26:42;20.40;;;8.75;;
34060;SDS011;20336;-33.424;-70.638;2023-03-12T15:31:51;16.27;;;8.40;;
34060;SDS011;20336;-33.424;-70.638;2023-03-12T15:34:33;16.48;;;8.70;;
34060;SDS011;20336;-33.424;-70.638;2023-03-12T15:37:01;15.30;;;8.52;;
34060;SDS011;20336;-33.424;-70.638;2023-03-12T15:39:35;20.35;;;9.02;;
34060;SDS011;20336;-33.424;-70.638;2023-03-12T15:42:09;19.65;;;8.73;;
34060;SDS011;20336;-33.424;-70.638;2023-03-12T15:44:59;18.30;;;8.93;;
34060;SDS011;20336;-33.424;-70.638;2023-03-12T15:47:32;19.15;;;8.40;;
34060;SDS011;20336;-33.424;-70.638;2023-03-12T15:50:10;12.45;;;6.63;;
34060;SDS011;20336;-33.424;-70.638;2023-03-12T15:52:38;13.73;;;6.55;;